Terminal Aerodrome Forecast
Issued by NWS

Home | Current Version | Previous Version | Text Only | Print | Product List | Glossary On
Versions: 1 2 3 4 5 6 7 8 9 10 11 12 13 14 15 16 17 18 19
000
FTUS43 KAPX 220520
TAFPLN
TAF
KPLN 220520Z 2206/2306 20011KT P6SM OVC120 WS014/23046KT
     FM221000 23012KT 6SM -FZDZ OVC008 WS014/23046KT
     FM221400 23011KT 5SM -DZ BR OVC006 WS014/23038KT
     FM230000 22004KT 5SM -DZ BR OVC006 WS014/24028KT=

USA.gov is the U.S. government's official web portal to all federal, state and local government web resources and services.